Terminal Aerodrome Forecast
Issued by NWS

Home | Current Version | Previous Version | Text Only | Print | Product List | Glossary On
Versions: 1 2 3 4 5 6 7 8 9 10 11 12 13 14 15 16 17 18
533
FTUS43 KGRB 230526 AAA
TAFCWA
TAF AMD
KCWA 230526Z 2305/2406 21003KT 2SM BR SCT250
      TEMPO 2306/2310 1/4SM FG VV001
     FM231000 17004KT 5SM BR BKN004
     FM231300 15006KT P6SM SCT120 BKN250
     FM232100 27006KT P6SM SCT020 BKN090 PROB30 2321/2324 -SHRA
      BKN020
     FM240000 32010KT 5SM BR SCT012 BKN025
      TEMPO 2403/2406 2SM -SHRA BR BKN012
      AMD LTD TO CLD VIS AND WIND TIL 231100=

USA.gov is the U.S. government's official web portal to all federal, state and local government web resources and services.